Piedmont E145 at Rochester on Jan 18th 2024, runway excursion on landing

Last Update: January 19, 2024 / 13:12:50 GMT/Zulu time

Bookmark this article
Incident Facts

Date of incident
Jan 18, 2024

Classification
Incident

Flight number
AA-5811

Aircraft Registration
N922AE

Aircraft Type
Embraer ERJ-145

ICAO Type Designator
E145

Airport ICAO Code
KROC

A Piedmont Embraer ERJ-145 on behalf of American Airlines, registration N922AE performing flight AA-5811 from Philadelphia,PA to Rochester,NY (USA) with 50 passengers and 3 crew, landed on Rochester's runway 22 and slowed. While vacating the runway via turn off A2 at 15:48L (20:48Z) the aircraft skidded and came to a stop partially off the taxiway still inside the runway protected area. Subsequent approaches were instructed to go around.

Runway 04/22 was closed, the airport switched to using runway 28.

The airline reported "snowy airport conditions" as cause for the occurrence. There were no injuries.

The aircraft is still on the ground in Rochester about 16 hours after landing.

Related NOTAM:
!ROC 01/451 ROC RWY 04/22 CLSD 2401182102-2401192359EST

Metars:
KROC 182154Z 27005KT 1SM R04/6000VP6000FT -SN BKN014 OVC019 M03/M06 A2999 RMK AO2 SLP169 P0004 T10331061=
KROC 182138Z 28006KT 1 1/2SM -SN BKN014 OVC022 M03/M06 A2999 RMK AO2 P0002 T10331061=
KROC 182131Z 26004KT 2SM -SN BKN012 OVC022 M03/M06 A2999 RMK AO2 P0002 T10281061=
KROC 182110Z 24004KT 8SM -SN BKN012 OVC019 M03/M06 A2998 RMK AO2 P0001 T10281061=
KROC 182054Z 23005KT 9SM -SN SCT012 OVC023 M03/M06 A2998 RMK AO2 SLP165 P0001 60008 T10281056 55002=
KROC 182037Z 22004KT 4SM -SN BR SCT013 OVC020 M03/M06 A2998 RMK AO2 P0001 T10331056=
KROC 182025Z 25005KT 2SM R04/5500VP6000FT -SN BR SCT010 OVC019 M03/M06 A2998 RMK AO2 P0001 T10331056=
KROC 182010Z 23003KT 3/4SM R04/5000VP6000FT -SN BR BKN010 OVC019 M03/M06 A2998 RMK AO2 P0001 T10331056=
KROC 181954Z 23004KT 1 1/4SM R04/5500VP6000FT -SN BR FEW010 BKN017 OVC025 M03/M06 A2998 RMK AO2 SLP162 P0004 T10331056=
KROC 181930Z 22006KT 1 1/2SM R04/4500VP6000FT -SN BKN015 OVC022 M03/M06 A2997 RMK AO2 P0002 T10331061=
KROC 181905Z 20007KT 2SM -SN SCT013 BKN020 OVC026 M03/M06 A2998 RMK AO2 P0001 T10331061=
KROC 181854Z 22005KT 1 3/4SM -SN FEW015 OVC024 M03/M06 A2998 RMK AO2 SLP163 P0003 T10331061=
KROC 181814Z 23008KT 2 1/2SM -SN SCT024 OVC029 M03/M07 A2999 RMK AO2 P0000 T10331067 $=
Aircraft Registration Data
Registration mark
N922AE
Country of Registration
United States
Date of Registration
MjnhdgmcAqinfekldh Subscribe to unlock
Manufacturer
EMBRAER
Aircraft Model / Type
EMB-145LR
Number of Seats
ICAO Aircraft Type
E145
Year of Manufacture
Serial Number
Aircraft Address / Mode S Code (HEX)
Engine Count
Engine Manufacturer
Engine Model
Engine Type
Pounds of Thrust
Main Owner
AnhpkjA dhdkhhAijApimcecpfldd qkidppmlndn pqnAnkAkpefniq pq pj kjigpckiggjkmh Aq Subscribe to unlock
Incident Facts

Date of incident
Jan 18, 2024

Classification
Incident

Flight number
AA-5811

Aircraft Registration
N922AE

Aircraft Type
Embraer ERJ-145

ICAO Type Designator
E145

Airport ICAO Code
KROC

This article is published under license from Avherald.com. © of text by Avherald.com.
Article source

You can read 2 more free articles without a subscription.

Subscribe now and continue reading without any limits!

Are you a subscriber? Login
Subscribe

Read unlimited articles and receive our daily update briefing. Gain better insights into what is happening in commercial aviation safety.

Send tip

Support AeroInside by sending a small tip amount.

Related articles

Newest articles

Subscribe today

Are you researching aviation incidents? Get access to AeroInside Insights, unlimited read access and receive the daily newsletter.

Pick your plan and subscribe

Partner

Blockaviation logo

A new way to document and demonstrate airworthiness compliance and aircraft value. Find out more.

ELITE Logo

ELITE Simulation Solutions is a leading global provider of Flight Simulation Training Devices, IFR training software as well as flight controls and related services. Find out more.

Blue Altitude Logo

Your regulation partner, specialists in aviation safety and compliance; providing training, auditing, and consultancy services. Find out more.

AeroInside Blog
Popular aircraft
Airbus A320
Boeing 737-800
Boeing 737-800 MAX
Popular airlines
American Airlines
United
Delta
Air Canada
Lufthansa
British Airways